Decoded Metar for RCNN (TAINAN in TAIWAN) (IATA:TNN) | Meteo·Mobile Aviation Weather
aviador You're here:

RCNN Decoded Metar

TAINAN in TAIWAN
Report Time2019-02-19 12:00:00
UTC Time2019-02-19 12:36:56
Flight Rules vfr VFR
WindCalm
Visibility9999 m
Phenomena:N/A
Clouds:Few 020 Hf
Scattered 100 Hf
Expected CloudBase > 1,200 ft AGL from Temp-Dew spread
CeilingNone
Temp22°C (ISA +7)
Dew Point19°C (83% RH)
QNH1019 hPa
Density Alt981 ft
Elevation62 ft
Report Wrong Elevation
Raw Report
RCNN 191200Z 00000KT 9999 FEW020 SCT100 22/19 Q1019 RMK A3011=

Extra information for RCNN:More info

Metar Taf Metar & Taf Last 4 Metars F.Rules Stats Wind Profile Meteogram Temp Stats Airport Information Weather charts Add Link Nearby VenuesMetar ALERT Operation Metar Decoded Social comments